Time;durP1;ratioP1;P1;durP2;ratioP2;P2;SDS_P1;SDS_P2;PMS_P1;PMS_P2;Temp;Humidity;BMP_temperature;BMP_pressure;BME280_temperature;BME280_humidity;BME280_pressure;Samples;Min_cycle;Max_cycle;Signal;HPM_P1;HPM_P2
2023/02/13 00:01:32;;;;;;;23.10;17.47;;;8.70;1.00;;;;;;5075567;28;20218;-58
2023/02/13 00:03:59;;;;;;;25.30;18.40;;;8.70;1.00;;;;;;5075060;28;20426;-58
2023/02/13 00:06:25;;;;;;;21.33;16.60;;;8.80;1.00;;;;;;5074629;28;20545;-57
2023/02/13 00:08:51;;;;;;;21.00;16.77;;;8.70;1.00;;;;;;5074261;28;20599;-58
2023/02/13 00:11:16;;;;;;;23.60;16.73;;;8.70;1.00;;;;;;5074961;28;20422;-60
2023/02/13 00:13:42;;;;;;;21.27;15.67;;;8.70;1.00;;;;;;5065087;28;20241;-58
2023/02/13 00:16:09;;;;;;;22.27;16.10;;;8.70;1.00;;;;;;5054999;28;20527;-58
2023/02/13 00:18:36;;;;;;;22.87;16.50;;;8.80;1.00;;;;;;5042895;28;20197;-57
2023/02/13 00:21:07;;;;;;;23.20;17.50;;;8.80;1.00;;;;;;5053654;28;20478;-59
2023/02/13 00:23:34;;;;;;;21.83;16.50;;;8.90;1.00;;;;;;5035168;28;20435;-58
2023/02/13 00:26:03;;;;;;;21.33;16.10;;;8.90;1.00;;;;;;5033578;28;20530;-57
2023/02/13 00:28:29;;;;;;;21.80;16.43;;;9.00;1.00;;;;;;5036394;28;20455;-57
2023/02/13 00:31:06;;;;;;;23.50;16.77;;;8.90;1.00;;;;;;5054565;28;21041;-58
2023/02/13 00:33:32;;;;;;;26.20;17.03;;;8.90;1.00;;;;;;5054737;28;20660;-58
2023/02/13 00:36:06;;;;;;;22.70;16.63;;;8.90;1.00;;;;;;5068594;28;20444;-57
2023/02/13 00:38:32;;;;;;;22.30;17.33;;;8.90;1.00;;;;;;5055501;28;20442;-58
2023/02/13 00:40:57;;;;;;;21.70;16.07;;;8.90;1.00;;;;;;5054385;28;20900;-58
2023/02/13 00:43:23;;;;;;;20.50;15.67;;;8.90;1.00;;;;;;5064185;28;20448;-58
2023/02/13 00:45:49;;;;;;;22.53;17.20;;;9.00;1.00;;;;;;5074597;28;20195;-58
2023/02/13 00:48:14;;;;;;;19.30;15.13;;;9.00;1.00;;;;;;5074459;28;20218;-58
2023/02/13 00:50:40;;;;;;;22.63;17.63;;;8.90;1.00;;;;;;5046268;28;20630;-58
2023/02/13 00:53:05;;;;;;;21.33;15.90;;;8.90;1.00;;;;;;5064747;28;20580;-58
2023/02/13 00:55:31;;;;;;;21.90;17.80;;;8.90;1.00;;;;;;5065275;28;20190;-59
2023/02/13 00:57:57;;;;;;;18.63;14.73;;;8.90;1.00;;;;;;5064061;28;20181;-58
2023/02/13 01:00:23;;;;;;;20.43;16.03;;;8.90;1.00;;;;;;5054272;28;20437;-58
2023/02/13 01:02:48;;;;;;;20.53;15.87;;;9.00;1.00;;;;;;5054025;28;20189;-58
2023/02/13 01:05:14;;;;;;;20.63;16.77;;;9.00;1.00;;;;;;5034697;28;20248;-58
2023/02/13 01:07:39;;;;;;;19.60;16.00;;;9.00;1.00;;;;;;5034873;28;20563;-59
2023/02/13 01:10:06;;;;;;;20.60;14.90;;;9.00;1.00;;;;;;5053590;28;20283;-58
2023/02/13 01:12:31;;;;;;;23.00;15.80;;;8.90;1.00;;;;;;5053955;28;20188;-58
2023/02/13 01:14:57;;;;;;;20.67;15.33;;;9.00;1.00;;;;;;5053350;28;20797;-58
2023/02/13 01:17:23;;;;;;;21.77;16.30;;;8.80;1.00;;;;;;5054179;28;20209;-59
2023/02/13 01:19:48;;;;;;;21.20;15.90;;;8.80;1.00;;;;;;5053974;28;20195;-59
2023/02/13 01:22:14;;;;;;;24.10;16.43;;;8.90;1.00;;;;;;5053794;28;20181;-58
2023/02/13 01:24:40;;;;;;;19.07;14.57;;;8.90;1.00;;;;;;5053849;28;20187;-59
2023/02/13 01:27:05;;;;;;;23.33;16.30;;;8.80;1.00;;;;;;5067003;28;20217;-57
2023/02/13 01:29:31;;;;;;;22.97;15.03;;;8.90;1.00;;;;;;5073319;28;20245;-60
2023/02/13 01:31:57;;;;;;;22.83;17.80;;;8.80;1.00;;;;;;5073713;28;20706;-59
2023/02/13 01:34:23;;;;;;;20.37;15.77;;;8.80;1.00;;;;;;5052972;28;20425;-58
2023/02/13 01:36:48;;;;;;;21.83;16.03;;;8.90;1.00;;;;;;5052275;28;20191;-58
2023/02/13 01:39:14;;;;;;;19.80;16.50;;;8.90;1.00;;;;;;5053650;28;20245;-59
2023/02/13 01:41:39;;;;;;;22.90;16.30;;;9.00;1.00;;;;;;5068899;28;20182;-58
2023/02/13 01:44:49;;;;;;;22.93;17.90;;;9.00;1.00;;;;;;5054525;28;20190;-58
2023/02/13 01:47:40;;;;;;;21.87;15.83;;;9.00;1.00;;;;;;5047585;28;20204;-56
2023/02/13 01:50:15;;;;;;;21.20;15.53;;;9.00;1.00;;;;;;5052667;28;20523;-57
2023/02/13 01:52:59;;;;;;;25.23;17.97;;;9.00;1.00;;;;;;5053282;28;20488;-58
2023/02/13 01:55:27;;;;;;;25.50;16.07;;;9.00;1.00;;;;;;5041926;28;20406;-58
2023/02/13 01:58:03;;;;;;;25.80;17.20;;;9.00;1.00;;;;;;5053143;28;20434;-60
2023/02/13 02:00:29;;;;;;;21.00;15.90;;;8.90;1.00;;;;;;5052780;28;20430;-59
2023/02/13 02:03:02;;;;;;;21.20;14.63;;;8.90;1.00;;;;;;5053198;28;20430;-58
2023/02/13 02:05:32;;;;;;;22.77;15.03;;;8.80;1.00;;;;;;5052981;28;20525;-59
2023/02/13 02:08:00;;;;;;;21.80;16.10;;;8.80;1.00;;;;;;5051138;28;20422;-59
2023/02/13 02:10:26;;;;;;;24.53;16.30;;;8.80;1.00;;;;;;5067242;28;20941;-57
2023/02/13 02:13:03;;;;;;;19.70;13.87;;;8.80;1.00;;;;;;5044784;28;20438;-59
2023/02/13 02:15:29;;;;;;;20.77;14.77;;;8.80;1.00;;;;;;5034153;28;20442;-57
2023/02/13 02:17:54;;;;;;;20.50;15.53;;;8.80;1.00;;;;;;5032619;28;20430;-58
2023/02/13 02:20:32;;;;;;;20.20;15.30;;;8.80;1.00;;;;;;5032786;28;20524;-59
2023/02/13 02:23:15;;;;;;;22.20;15.47;;;8.80;1.00;;;;;;5043870;28;20585;-59
2023/02/13 02:25:56;;;;;;;23.30;16.10;;;8.80;1.00;;;;;;5052838;28;20936;-58
2023/02/13 02:28:52;;;;;;;25.80;16.13;;;8.80;1.00;;;;;;5062972;28;20440;-57
2023/02/13 02:31:52;;;;;;;22.40;15.90;;;8.90;1.00;;;;;;5057956;28;20438;-58
2023/02/13 02:34:48;;;;;;;24.50;17.13;;;9.00;1.00;;;;;;5056589;28;20441;-57
2023/02/13 02:37:34;;;;;;;25.60;17.10;;;9.00;1.00;;;;;;5057087;28;20425;-57
2023/02/13 02:40:37;;;;;;;31.97;19.67;;;9.10;1.00;;;;;;5056655;28;20434;-58
2023/02/13 02:43:13;;;;;;;32.87;17.43;;;9.20;1.00;;;;;;5056622;28;20430;-57
2023/02/13 02:46:00;;;;;;;35.30;18.20;;;9.30;1.00;;;;;;5056540;28;20443;-57
2023/02/13 02:52:12;;;;;;;30.00;18.10;;;9.20;1.00;;;;;;5056575;28;20530;-58
2023/02/13 03:14:15;;;;;;;35.47;19.40;;;9.10;1.00;;;;;;5036296;28;20518;-57
2023/02/13 03:22:41;;;;;;;34.00;18.33;;;9.10;1.00;;;;;;5064964;28;20524;-57
2023/02/13 03:25:29;;;;;;;36.10;18.30;;;9.10;1.00;;;;;;5036160;28;20835;-57
2023/02/13 03:31:25;;;;;;;39.53;19.73;;;9.10;1.00;;;;;;5035983;28;20767;-57
2023/02/13 03:34:03;;;;;;;35.20;18.47;;;9.10;1.00;;;;;;5059319;28;20438;-57
2023/02/13 03:40:11;;;;;;;40.33;21.53;;;9.10;1.00;;;;;;5076311;28;20399;-57
2023/02/13 03:43:16;;;;;;;35.73;18.40;;;9.00;1.00;;;;;;5071774;28;20404;-58
2023/02/13 03:45:52;;;;;;;31.07;19.50;;;9.00;1.00;;;;;;5049382;28;20950;-57
2023/02/13 03:51:13;;;;;;;34.53;21.03;;;9.00;1.00;;;;;;5043381;28;20437;-58
2023/02/13 03:53:41;;;;;;;37.17;20.73;;;9.00;1.00;;;;;;5053102;28;20528;-59
2023/02/13 03:59:17;;;;;;;40.47;19.43;;;8.90;1.00;;;;;;5055532;28;20423;-59
2023/02/13 04:02:05;;;;;;;35.87;19.77;;;8.80;1.00;;;;;;5055446;28;20946;-58
2023/02/13 04:04:49;;;;;;;41.67;20.17;;;8.80;1.00;;;;;;5050722;28;20817;-57
2023/02/13 04:07:28;;;;;;;38.57;20.60;;;8.70;12.60;;;;;;5063079;28;20415;-58
2023/02/13 04:09:55;;;;;;;40.57;21.10;;;8.70;61.50;;;;;;5071835;28;20465;-58
2023/02/13 04:12:30;;;;;;;34.23;19.33;;;8.70;57.60;;;;;;5071978;28;20464;-57
2023/02/13 04:15:14;;;;;;;35.20;20.40;;;8.70;57.70;;;;;;5048139;28;20500;-58
2023/02/13 04:17:45;;;;;;;36.67;22.30;;;8.70;61.50;;;;;;5052006;28;20486;-58
2023/02/13 04:20:11;;;;;;;31.67;19.00;;;8.80;57.70;;;;;;5038794;28;20455;-58
2023/02/13 04:22:45;;;;;;;34.60;19.10;;;8.70;51.50;;;;;;5034669;28;20496;-57
2023/02/13 04:25:16;;;;;;;29.13;18.30;;;8.70;57.60;;;;;;5038555;28;20926;-58
2023/02/13 04:27:42;;;;;;;36.73;20.60;;;8.60;76.30;;;;;;5060351;28;20452;-57
2023/02/13 04:30:08;;;;;;;35.30;18.30;;;8.50;90.70;;;;;;5037760;28;20553;-57
2023/02/13 04:32:34;;;;;;;34.93;18.80;;;8.50;99.90;;;;;;5034677;28;20437;-60
2023/02/13 04:35:06;;;;;;;36.07;19.53;;;8.60;99.90;;;;;;5049214;28;20433;-58
2023/02/13 04:37:31;;;;;;;40.37;19.37;;;8.70;99.90;;;;;;5047165;28;20641;-59
2023/02/13 04:39:57;;;;;;;40.90;18.90;;;8.60;99.90;;;;;;5034532;28;20451;-58
2023/02/13 04:42:23;;;;;;;33.20;18.67;;;8.60;99.90;;;;;;5068260;28;20187;-58
2023/02/13 04:44:48;;;;;;;29.67;17.50;;;8.60;99.90;;;;;;5074350;28;20191;-57
2023/02/13 04:47:14;;;;;;;31.97;18.87;;;8.50;99.90;;;;;;5074278;28;20272;-57
2023/02/13 04:49:39;;;;;;;37.13;19.57;;;8.50;99.90;;;;;;5067231;28;20207;-57
2023/02/13 04:52:05;;;;;;;38.83;20.00;;;8.50;99.90;;;;;;5054334;28;20183;-58
2023/02/13 04:54:30;;;;;;;32.77;19.27;;;8.50;99.90;;;;;;5049980;28;20302;-58
2023/02/13 04:56:56;;;;;;;38.30;20.57;;;8.40;99.90;;;;;;5038385;28;20173;-57
2023/02/13 04:59:22;;;;;;;34.07;19.27;;;8.50;99.90;;;;;;5049924;28;20603;-57
2023/02/13 05:01:47;;;;;;;37.10;19.77;;;8.50;99.90;;;;;;5036380;28;20208;-57
2023/02/13 05:04:15;;;;;;;28.30;17.10;;;8.60;99.90;;;;;;5053577;28;20183;-56
2023/02/13 05:06:41;;;;;;;28.47;17.77;;;8.60;99.90;;;;;;5053804;28;20179;-57
2023/02/13 05:09:07;;;;;;;42.20;19.53;;;8.60;99.90;;;;;;5053321;28;20517;-56
2023/02/13 05:11:32;;;;;;;35.33;19.40;;;8.60;99.90;;;;;;5055388;28;20434;-57
2023/02/13 05:13:58;;;;;;;27.00;17.37;;;8.40;99.90;;;;;;5056036;28;20183;-57
2023/02/13 05:16:23;;;;;;;33.00;17.50;;;8.40;99.90;;;;;;5047389;28;20220;-58
2023/02/13 05:18:53;;;;;;;33.70;17.47;;;8.40;99.90;;;;;;5051772;28;20193;-57
2023/02/13 05:24:04;;;;;;;29.63;18.20;;;8.40;99.90;;;;;;5053451;28;20424;-59
2023/02/13 05:26:32;;;;;;;32.70;18.10;;;8.40;99.90;;;;;;5037903;28;20450;-57
2023/02/13 05:31:42;;;;;;;29.33;17.67;;;8.30;99.90;;;;;;5052672;28;20479;-58
2023/02/13 05:34:08;;;;;;;29.87;17.63;;;8.10;99.90;;;;;;5047254;28;20390;-57
2023/02/13 05:36:33;;;;;;;26.23;17.40;;;8.30;99.90;;;;;;5051249;28;20179;-58
2023/02/13 05:38:59;;;;;;;30.63;17.80;;;8.40;99.90;;;;;;5053219;28;20177;-58
2023/02/13 05:41:25;;;;;;;31.43;17.90;;;8.30;99.90;;;;;;5053511;28;20203;-58
2023/02/13 05:43:50;;;;;;;33.13;17.60;;;8.30;99.90;;;;;;5063960;28;20202;-56
2023/02/13 05:46:16;;;;;;;29.63;16.70;;;8.30;99.90;;;;;;5055718;28;20216;-58
2023/02/13 05:48:41;;;;;;;26.80;16.17;;;8.30;99.90;;;;;;5056786;28;20206;-58
2023/02/13 05:51:07;;;;;;;29.67;16.37;;;8.30;99.90;;;;;;5072694;28;20189;-58
2023/02/13 05:53:34;;;;;;;27.97;15.87;;;8.40;99.90;;;;;;5052949;28;20226;-58
2023/02/13 05:56:01;;;;;;;26.50;16.77;;;8.40;99.90;;;;;;5052922;28;20238;-57
2023/02/13 05:58:27;;;;;;;31.53;17.47;;;8.40;99.90;;;;;;5061627;28;20519;-56
2023/02/13 06:00:56;;;;;;;31.73;17.17;;;8.50;99.90;;;;;;5052965;28;20448;-59
2023/02/13 06:03:23;;;;;;;28.13;16.50;;;8.50;99.90;;;;;;5053043;28;20450;-57
2023/02/13 06:05:48;;;;;;;29.20;17.23;;;8.40;99.90;;;;;;5051904;28;20435;-58
2023/02/13 06:08:14;;;;;;;29.63;16.47;;;8.50;99.90;;;;;;5052939;28;20446;-59
2023/02/13 06:10:39;;;;;;;27.87;15.90;;;8.50;99.90;;;;;;5055077;28;20191;-57
2023/02/13 06:13:05;;;;;;;25.60;14.60;;;8.50;99.90;;;;;;5052653;28;20187;-57
2023/02/13 06:15:31;;;;;;;27.60;16.10;;;8.50;99.90;;;;;;5051788;28;20540;-57
2023/02/13 06:17:56;;;;;;;28.03;16.47;;;8.50;99.90;;;;;;5052530;28;20662;-58
2023/02/13 06:20:22;;;;;;;29.97;17.00;;;8.60;99.90;;;;;;5052369;28;20189;-56
2023/02/13 06:22:49;;;;;;;30.60;16.43;;;8.60;99.90;;;;;;5064649;28;20250;-58
2023/02/13 06:25:15;;;;;;;32.50;17.90;;;8.60;99.90;;;;;;5072771;28;20191;-58
2023/02/13 06:27:40;;;;;;;28.37;16.97;;;8.60;99.90;;;;;;5060187;28;20449;-56
2023/02/13 06:30:07;;;;;;;31.43;17.03;;;8.60;99.90;;;;;;5052745;28;20208;-58
2023/02/13 06:32:32;;;;;;;26.10;15.50;;;8.60;99.90;;;;;;5055532;28;20180;-59
2023/02/13 06:34:58;;;;;;;25.17;16.07;;;8.70;99.90;;;;;;5070431;28;20431;-58
2023/02/13 06:37:23;;;;;;;30.20;16.83;;;8.80;99.90;;;;;;5052425;28;20594;-57
2023/02/13 06:39:49;;;;;;;29.37;16.70;;;8.80;99.90;;;;;;5043775;28;20189;-57
2023/02/13 06:42:15;;;;;;;27.03;17.10;;;8.70;99.90;;;;;;5052715;28;20208;-57
2023/02/13 06:44:40;;;;;;;33.10;16.53;;;8.80;99.90;;;;;;5052376;28;20190;-60
2023/02/13 06:47:06;;;;;;;27.63;16.60;;;8.70;99.90;;;;;;5052166;28;20274;-59
2023/02/13 06:49:31;;;;;;;28.40;16.17;;;8.70;99.90;;;;;;5052252;28;20214;-58
2023/02/13 06:51:57;;;;;;;29.10;16.37;;;8.70;99.90;;;;;;5050714;28;20191;-60
2023/02/13 06:54:23;;;;;;;30.43;16.50;;;8.70;99.90;;;;;;5051936;28;20238;-58
2023/02/13 06:56:48;;;;;;;30.83;17.00;;;8.80;99.90;;;;;;5052322;28;20706;-57
2023/02/13 06:59:14;;;;;;;27.77;15.10;;;8.80;99.90;;;;;;5042396;28;20643;-61
2023/02/13 07:01:39;;;;;;;29.93;16.93;;;8.70;93.10;;;;;;5046743;28;20187;-60
2023/02/13 07:04:05;;;;;;;32.73;17.07;;;8.80;94.60;;;;;;5033946;28;20200;-61
2023/02/13 07:06:32;;;;;;;31.40;17.23;;;8.70;94.30;;;;;;5048825;28;20230;-61
2023/02/13 07:08:57;;;;;;;29.23;15.83;;;8.70;84.30;;;;;;5041003;28;20469;-63
2023/02/13 07:11:24;;;;;;;34.90;16.87;;;8.70;89.00;;;;;;5041373;28;20192;-60
2023/02/13 07:13:49;;;;;;;29.17;15.50;;;8.60;87.30;;;;;;5035563;28;20192;-63
2023/02/13 07:16:15;;;;;;;28.97;14.87;;;8.60;99.90;;;;;;5045819;28;20451;-60
2023/02/13 07:18:41;;;;;;;32.47;16.13;;;8.70;92.50;;;;;;5042649;28;20188;-61
2023/02/13 07:21:07;;;;;;;35.97;16.27;;;8.60;99.60;;;;;;5042242;28;20196;-56
2023/02/13 07:23:33;;;;;;;29.23;16.37;;;8.80;94.00;;;;;;5043331;28;20196;-56
2023/02/13 07:25:59;;;;;;;34.73;17.17;;;8.70;79.20;;;;;;5055538;28;21019;-57
2023/02/13 07:28:26;;;;;;;31.73;15.73;;;8.80;53.40;;;;;;5043271;28;20959;-56
2023/02/13 07:30:52;;;;;;;31.40;16.17;;;8.70;46.00;;;;;;5042436;28;20449;-55
2023/02/13 07:33:17;;;;;;;29.70;15.57;;;8.70;52.20;;;;;;5042398;28;20509;-57
2023/02/13 07:35:47;;;;;;;34.50;17.60;;;8.70;45.50;;;;;;5049779;28;20198;-57
2023/02/13 07:38:13;;;;;;;39.00;17.87;;;8.60;51.20;;;;;;5045231;28;20211;-57
2023/02/13 07:40:38;;;;;;;33.07;15.93;;;8.70;56.80;;;;;;5048199;28;20484;-55
2023/02/13 07:43:04;;;;;;;30.93;17.77;;;8.70;52.80;;;;;;5058031;28;20287;-58
2023/02/13 07:45:30;;;;;;;36.90;17.77;;;8.80;34.00;;;;;;5046156;28;20188;-58
2023/02/13 07:47:56;;;;;;;34.63;17.77;;;8.80;23.80;;;;;;5052770;28;20863;-58
2023/02/13 07:50:23;;;;;;;35.03;16.30;;;8.70;23.40;;;;;;5046605;28;20201;-55
2023/02/13 07:53:00;;;;;;;36.23;16.17;;;8.80;19.20;;;;;;5049482;28;20545;-56
2023/02/13 07:55:27;;;;;;;34.83;18.80;;;8.80;1.90;;;;;;5053105;28;20525;-56
2023/02/13 07:57:53;;;;;;;34.17;17.40;;;8.80;1.00;;;;;;5048030;28;20990;-59
2023/02/13 08:00:20;;;;;;;33.47;15.37;;;8.70;1.60;;;;;;5055112;28;20454;-56
2023/02/13 08:02:46;;;;;;;35.80;18.50;;;8.70;1.40;;;;;;5061124;28;20489;-55
2023/02/13 08:05:11;;;;;;;34.63;16.87;;;8.80;4.60;;;;;;5048045;28;20455;-57
2023/02/13 08:07:37;;;;;;;33.00;16.83;;;8.80;3.00;;;;;;5047968;28;20486;-55
2023/02/13 08:12:52;;;;;;;32.00;18.13;;;8.80;2.10;;;;;;5046071;28;20196;-56
2023/02/13 08:15:17;;;;;;;28.17;16.50;;;8.80;1.00;;;;;;5057058;28;20445;-58
2023/02/13 08:17:43;;;;;;;29.17;15.70;;;8.90;1.00;;;;;;5045152;28;20479;-57
2023/02/13 08:20:09;;;;;;;35.77;16.50;;;8.80;1.00;;;;;;5052262;28;20260;-56
2023/02/13 08:22:36;;;;;;;29.77;18.20;;;8.80;1.00;;;;;;5053753;28;20675;-56
2023/02/13 08:25:03;;;;;;;30.00;16.40;;;8.80;1.00;;;;;;5054462;28;20446;-57
2023/02/13 08:27:29;;;;;;;32.40;16.07;;;8.80;1.00;;;;;;5047710;28;20454;-57
2023/02/13 08:29:55;;;;;;;29.73;15.50;;;8.80;1.00;;;;;;5048882;28;20463;-57
2023/02/13 08:32:22;;;;;;;31.80;15.43;;;8.90;1.00;;;;;;5054069;28;20604;-56
2023/02/13 08:34:47;;;;;;;30.10;16.23;;;9.00;1.00;;;;;;5046690;28;20799;-58
2023/02/13 08:37:13;;;;;;;20.57;15.30;;;9.00;1.00;;;;;;5060049;28;20443;-57
2023/02/13 08:39:39;;;;;;;24.20;14.00;;;9.00;1.00;;;;;;5047349;28;20227;-57
2023/02/13 08:42:04;;;;;;;28.87;15.27;;;9.00;1.00;;;;;;5049765;28;20192;-58
2023/02/13 08:44:30;;;;;;;27.00;14.00;;;9.00;1.00;;;;;;5043789;28;20187;-57
2023/02/13 08:46:56;;;;;;;25.90;14.73;;;9.00;1.00;;;;;;5050279;28;20186;-56
2023/02/13 08:49:22;;;;;;;27.60;15.67;;;9.00;1.00;;;;;;5034622;28;20210;-56
2023/02/13 08:51:48;;;;;;;27.33;15.40;;;9.00;1.00;;;;;;5043138;28;20192;-57
2023/02/13 08:54:14;;;;;;;28.50;15.00;;;9.10;1.00;;;;;;5048421;28;20486;-58
2023/02/13 08:56:40;;;;;;;23.30;13.57;;;9.10;1.00;;;;;;5058100;28;20806;-56
2023/02/13 08:59:06;;;;;;;28.30;15.47;;;9.40;1.00;;;;;;5058347;28;20203;-57
2023/02/13 09:01:32;;;;;;;27.13;15.20;;;9.40;1.00;;;;;;5050123;28;20425;-58
2023/02/13 09:03:57;;;;;;;22.77;12.83;;;9.40;1.00;;;;;;5049818;28;20216;-58
2023/02/13 09:06:25;;;;;;;19.83;13.07;;;9.50;1.00;;;;;;5054870;28;20252;-57
2023/02/13 09:08:51;;;;;;;23.60;14.90;;;9.60;1.00;;;;;;5059328;28;20609;-56
2023/02/13 09:11:18;;;;;;;24.07;14.00;;;9.40;1.00;;;;;;5061534;28;20476;-56
2023/02/13 09:13:44;;;;;;;26.70;15.00;;;9.40;1.00;;;;;;5043593;28;20475;-56
2023/02/13 09:16:10;;;;;;;21.57;12.73;;;9.30;1.00;;;;;;5054203;28;20565;-58
2023/02/13 09:18:35;;;;;;;25.67;14.77;;;9.40;1.00;;;;;;5052529;28;20189;-56
2023/02/13 09:21:04;;;;;;;25.03;14.30;;;9.50;1.00;;;;;;5044666;28;20451;-56
2023/02/13 09:23:34;;;;;;;22.00;13.37;;;9.50;1.00;;;;;;5055905;28;20194;-56
2023/02/13 09:26:02;;;;;;;24.43;12.43;;;9.40;1.00;;;;;;5049383;28;20450;-57
2023/02/13 09:28:32;;;;;;;22.63;12.97;;;9.40;1.00;;;;;;5056676;28;20421;-60
2023/02/13 09:30:58;;;;;;;21.20;12.07;;;9.30;1.00;;;;;;5062684;28;20538;-57
2023/02/13 09:33:25;;;;;;;19.33;11.73;;;9.30;1.00;;;;;;5052807;28;20562;-57
2023/02/13 09:35:50;;;;;;;23.23;13.90;;;9.10;1.00;;;;;;5060646;28;20191;-56
2023/02/13 09:38:16;;;;;;;23.20;15.83;;;9.10;1.00;;;;;;5071756;28;20445;-57
2023/02/13 09:40:45;;;;;;;24.20;15.77;;;9.10;1.00;;;;;;5050218;28;20202;-57
2023/02/13 09:43:27;;;;;;;21.50;13.20;;;9.40;1.00;;;;;;5052621;28;20439;-56
2023/02/13 09:45:57;;;;;;;21.50;13.07;;;9.60;1.00;;;;;;5052525;28;20456;-56
2023/02/13 09:48:31;;;;;;;18.07;12.93;;;9.80;1.00;;;;;;5056317;28;20558;-58
2023/02/13 09:50:58;;;;;;;21.13;12.67;;;9.90;1.00;;;;;;5055998;28;20427;-57
2023/02/13 09:53:27;;;;;;;21.77;13.00;;;9.90;1.00;;;;;;5059110;28;20482;-59
2023/02/13 09:55:58;;;;;;;19.73;12.37;;;9.90;1.00;;;;;;5056710;28;20449;-58
2023/02/13 09:58:37;;;;;;;19.57;12.00;;;10.00;1.00;;;;;;5057638;28;20898;-58
2023/02/13 10:01:14;;;;;;;19.07;11.87;;;10.00;1.00;;;;;;5058338;28;20856;-56
2023/02/13 10:03:44;;;;;;;20.73;13.03;;;10.20;1.00;;;;;;5060109;28;20922;-58
2023/02/13 10:06:18;;;;;;;19.10;12.27;;;10.40;1.00;;;;;;5052679;28;20460;-59
2023/02/13 10:09:02;;;;;;;21.03;13.57;;;10.50;1.00;;;;;;5053579;28;20852;-57
2023/02/13 10:11:37;;;;;;;20.73;13.30;;;10.60;1.00;;;;;;5057341;28;20412;-59
2023/02/13 10:14:21;;;;;;;19.90;13.97;;;10.70;1.00;;;;;;5067817;28;20404;-58
2023/02/13 10:17:09;;;;;;;18.13;12.73;;;10.50;1.00;;;;;;5041737;28;20439;-60
2023/02/13 10:19:48;;;;;;;18.90;13.00;;;10.40;1.00;;;;;;5054062;28;20450;-59
2023/02/13 10:22:16;;;;;;;17.17;12.40;;;10.30;1.00;;;;;;5067986;28;20442;-59
2023/02/13 10:24:56;;;;;;;17.20;12.57;;;10.30;1.00;;;;;;5057917;28;20446;-59
2023/02/13 10:27:23;;;;;;;16.47;11.90;;;10.30;1.00;;;;;;5070310;28;20429;-57
2023/02/13 10:30:04;;;;;;;21.70;14.53;;;10.10;1.00;;;;;;5060415;28;20466;-59
2023/02/13 10:33:10;;;;;;;21.83;13.57;;;10.30;1.00;;;;;;5036617;28;20496;-57
2023/02/13 10:35:37;;;;;;;19.53;12.50;;;10.50;1.00;;;;;;5049428;28;20429;-58
2023/02/13 10:38:14;;;;;;;17.10;12.47;;;10.50;1.00;;;;;;5063214;28;20919;-57
2023/02/13 10:40:50;;;;;;;18.23;11.90;;;10.70;1.00;;;;;;5054164;28;20484;-60
2023/02/13 10:43:20;;;;;;;18.63;11.80;;;10.60;1.00;;;;;;5066643;28;20437;-59
2023/02/13 10:46:04;;;;;;;15.13;11.20;;;10.60;1.00;;;;;;5061081;28;20449;-58
2023/02/13 10:48:40;;;;;;;16.03;11.17;;;10.70;1.00;;;;;;5058332;28;20407;-62
2023/02/13 10:51:20;;;;;;;15.13;10.77;;;10.70;1.00;;;;;;5041197;28;20528;-58
2023/02/13 10:54:04;;;;;;;16.70;10.10;;;10.80;1.00;;;;;;5064494;28;20525;-58
2023/02/13 10:56:42;;;;;;;15.33;10.70;;;10.80;1.00;;;;;;5052509;28;20448;-57
2023/02/13 10:59:33;;;;;;;16.27;10.50;;;10.70;1.00;;;;;;5063637;28;20416;-58
2023/02/13 11:02:16;;;;;;;13.90;10.53;;;10.60;1.00;;;;;;5060444;28;20470;-58
2023/02/13 11:04:43;;;;;;;11.20;8.50;;;10.70;1.00;;;;;;5061122;28;20450;-58
2023/02/13 11:07:14;;;;;;;11.87;8.37;;;10.70;1.00;;;;;;5055411;28;20909;-58
2023/02/13 11:09:44;;;;;;;14.20;9.60;;;10.60;1.00;;;;;;5072419;28;20443;-58
2023/02/13 11:12:30;;;;;;;12.00;9.40;;;10.50;1.00;;;;;;5064589;28;20410;-59
2023/02/13 11:15:07;;;;;;;12.23;9.03;;;10.60;1.00;;;;;;5065527;28;20535;-57
2023/02/13 11:17:40;;;;;;;11.30;8.57;;;10.60;1.00;;;;;;5068107;28;20396;-59
2023/02/13 11:20:23;;;;;;;10.13;8.30;;;10.50;1.00;;;;;;5068279;28;20474;-59
2023/02/13 11:22:48;;;;;;;11.43;7.70;;;10.40;1.00;;;;;;5072809;28;20432;-62
2023/02/13 11:25:24;;;;;;;11.53;8.30;;;10.40;1.00;;;;;;5075322;28;20434;-57
2023/02/13 11:27:54;;;;;;;13.83;9.23;;;10.30;1.00;;;;;;5060936;28;20206;-58
2023/02/13 11:30:22;;;;;;;10.87;8.63;;;10.40;1.00;;;;;;5055510;28;20434;-56
2023/02/13 11:33:15;;;;;;;9.77;7.90;;;10.30;1.00;;;;;;5055553;28;20447;-58
2023/02/13 11:35:40;;;;;;;10.17;8.73;;;10.20;1.00;;;;;;5055421;28;20435;-56
2023/02/13 11:38:09;;;;;;;8.33;7.17;;;10.20;1.00;;;;;;5063671;28;20442;-58
2023/02/13 11:40:36;;;;;;;11.70;8.80;;;10.10;1.00;;;;;;5061871;28;20547;-58
2023/02/13 11:43:05;;;;;;;10.70;8.13;;;10.00;1.00;;;;;;5063409;28;20522;-61
2023/02/13 11:45:30;;;;;;;10.93;8.13;;;9.50;1.00;;;;;;5035535;28;20433;-59
2023/02/13 11:47:56;;;;;;;9.90;8.00;;;10.00;1.00;;;;;;5035896;28;20937;-59
2023/02/13 11:50:30;;;;;;;10.90;9.47;;;9.90;1.00;;;;;;5035602;28;20236;-59
2023/02/13 11:53:06;;;;;;;10.97;8.00;;;9.80;1.00;;;;;;5045555;28;20852;-59
2023/02/13 11:55:32;;;;;;;10.27;9.00;;;9.90;1.00;;;;;;5062753;28;20418;-59
2023/02/13 11:58:03;;;;;;;11.30;9.40;;;10.10;1.00;;;;;;5075343;28;20765;-59
2023/02/13 12:00:32;;;;;;;13.43;9.60;;;10.20;1.00;;;;;;5075625;28;20210;-58
2023/02/13 12:02:58;;;;;;;10.30;9.20;;;10.30;1.00;;;;;;5074227;28;20397;-60
2023/02/13 12:05:26;;;;;;;10.13;8.43;;;10.30;1.00;;;;;;5057426;28;20954;-59
2023/02/13 12:07:57;;;;;;;11.00;8.97;;;10.40;1.00;;;;;;5039660;28;20279;-58
2023/02/13 12:10:32;;;;;;;11.67;9.67;;;10.50;1.00;;;;;;5054650;28;20471;-59
2023/02/13 12:13:19;;;;;;;10.47;8.50;;;10.50;1.00;;;;;;5047192;28;20858;-59
2023/02/13 12:15:52;;;;;;;12.47;9.47;;;10.50;1.00;;;;;;5061825;28;20454;-59
2023/02/13 12:18:29;;;;;;;11.30;9.13;;;10.50;1.00;;;;;;5060335;28;20450;-59
2023/02/13 12:21:00;;;;;;;10.70;8.73;;;10.40;1.00;;;;;;5043526;28;20464;-60
2023/02/13 12:23:37;;;;;;;10.57;9.10;;;10.30;1.00;;;;;;5055357;28;20473;-57
2023/02/13 12:26:03;;;;;;;10.20;8.40;;;10.20;1.00;;;;;;5052477;28;20450;-58
2023/02/13 12:28:54;;;;;;;11.50;9.60;;;10.20;1.00;;;;;;5054048;28;20441;-59
2023/02/13 12:31:41;;;;;;;9.07;7.73;;;10.30;1.00;;;;;;5053204;28;20713;-58
2023/02/13 12:34:16;;;;;;;9.60;8.60;;;10.30;1.00;;;;;;5055703;28;20450;-59
2023/02/13 12:37:03;;;;;;;10.33;8.00;;;10.30;1.00;;;;;;5059984;28;20447;-59
2023/02/13 12:39:33;;;;;;;10.70;9.27;;;10.30;1.00;;;;;;5054498;28;20803;-58
2023/02/13 12:42:18;;;;;;;9.80;8.80;;;10.30;1.00;;;;;;5054491;28;20430;-61
2023/02/13 12:45:11;;;;;;;12.80;9.23;;;10.40;1.00;;;;;;5054229;28;20435;-59
2023/02/13 12:48:01;;;;;;;9.60;7.87;;;10.60;1.00;;;;;;5054635;28;20481;-59
2023/02/13 12:51:03;;;;;;;8.67;7.77;;;10.50;1.00;;;;;;5034059;28;20466;-58
2023/02/13 12:54:03;;;;;;;8.80;7.90;;;10.30;1.00;;;;;;5048745;28;20456;-61
2023/02/13 12:56:50;;;;;;;8.73;7.60;;;10.30;1.00;;;;;;5054338;28;20899;-59
2023/02/13 12:59:37;;;;;;;9.10;8.10;;;10.50;1.00;;;;;;5070461;28;20908;-59
2023/02/13 13:02:25;;;;;;;8.90;8.00;;;10.70;1.00;;;;;;5050682;28;20448;-60
2023/02/13 13:05:10;;;;;;;9.20;8.03;;;10.80;1.00;;;;;;5055398;28;20800;-59
2023/02/13 13:08:03;;;;;;;8.33;7.47;;;10.80;1.00;;;;;;5038663;28;20442;-59
2023/02/13 13:10:32;;;;;;;7.10;6.30;;;10.80;1.00;;;;;;5045157;28;20973;-59
2023/02/13 13:13:01;;;;;;;7.53;6.83;;;10.70;1.00;;;;;;5066890;28;20469;-60
2023/02/13 13:15:32;;;;;;;7.50;6.80;;;10.40;1.00;;;;;;5052754;28;20512;-59
2023/02/13 13:18:16;;;;;;;7.50;6.43;;;10.30;1.00;;;;;;5065810;28;20438;-60
2023/02/13 13:20:44;;;;;;;8.30;7.20;;;10.30;1.00;;;;;;5064299;28;20442;-60
2023/02/13 13:23:46;;;;;;;7.33;6.60;;;10.30;1.00;;;;;;5059791;28;20510;-60
2023/02/13 13:26:17;;;;;;;8.00;7.20;;;10.30;1.00;;;;;;5052107;28;20928;-59
2023/02/13 13:28:48;;;;;;;7.33;6.53;;;10.30;1.00;;;;;;5052942;28;20410;-60
2023/02/13 13:31:15;;;;;;;7.97;6.70;;;10.10;1.00;;;;;;5050429;28;20858;-58
2023/02/13 13:33:44;;;;;;;7.70;6.73;;;10.10;1.00;;;;;;5053984;28;20444;-57
2023/02/13 13:36:32;;;;;;;8.63;7.10;;;9.90;1.00;;;;;;5063176;28;20948;-59
2023/02/13 13:39:00;;;;;;;8.73;6.97;;;9.90;1.00;;;;;;5049156;28;20456;-59
2023/02/13 13:41:29;;;;;;;7.27;5.97;;;9.80;1.00;;;;;;5060410;28;20428;-58
2023/02/13 13:44:02;;;;;;;7.10;6.40;;;9.80;1.00;;;;;;5070148;28;20473;-58
2023/02/13 13:46:36;;;;;;;8.03;6.70;;;9.90;1.00;;;;;;5070172;28;20650;-59
2023/02/13 13:49:37;;;;;;;8.47;6.80;;;9.80;1.00;;;;;;5068033;28;20464;-58
2023/02/13 13:52:31;;;;;;;9.77;7.43;;;9.90;1.00;;;;;;5053441;28;20453;-59
2023/02/13 13:54:59;;;;;;;6.70;6.00;;;9.90;1.00;;;;;;5059867;28;20473;-59
2023/02/13 13:57:26;;;;;;;8.43;7.00;;;9.90;1.00;;;;;;5072037;28;20463;-59